Time;durP1;ratioP1;P1;durP2;ratioP2;P2;SDS_P1;SDS_P2;PMS_P1;PMS_P2;Temp;Humidity;BMP_temperature;BMP_pressure;BME280_temperature;BME280_humidity;BME280_pressure;Samples;Min_cycle;Max_cycle;Signal;HPM_P1;HPM_P2
2022/06/27 00:01:23;;;;;;;7.70;5.00;;;;;;;;;;5095301;28;20261;-73
2022/06/27 00:03:48;;;;;;;6.60;5.03;;;;;;;;;;5095774;28;20121;-73
2022/06/27 00:06:13;;;;;;;7.45;5.32;;;;;;;;;;5095248;28;20252;-72
2022/06/27 00:08:39;;;;;;;5.30;4.80;;;;;;;;;;5095526;28;20056;-72
2022/06/27 00:11:05;;;;;;;6.97;4.80;;;;;;;;;;5095228;28;20024;-72
2022/06/27 00:13:30;;;;;;;6.70;4.88;;;;;;;;;;5095656;28;20032;-72
2022/06/27 00:15:55;;;;;;;5.72;5.05;;;;;;;;;;5095332;28;20024;-72
2022/06/27 00:18:21;;;;;;;5.30;4.80;;;;;;;;;;5094502;28;20031;-72
2022/06/27 00:20:46;;;;;;;6.18;5.45;;;;;;;;;;5094963;28;20032;-73
2022/06/27 00:23:11;;;;;;;7.47;4.93;;;;;;;;;;5095318;28;20024;-72
2022/06/27 00:25:37;;;;;;;5.57;4.97;;;;;;;;;;5095023;28;20020;-73
2022/06/27 00:28:02;;;;;;;8.23;5.40;;;;;;;;;;5095167;28;20393;-72
2022/06/27 00:30:27;;;;;;;6.43;4.97;;;;;;;;;;5093737;28;20398;-72
2022/06/27 00:32:52;;;;;;;5.78;5.18;;;;;;;;;;5095522;28;20027;-72
2022/06/27 00:35:18;;;;;;;8.17;5.43;;;;;;;;;;5093696;28;20023;-73
2022/06/27 00:37:43;;;;;;;6.63;5.30;;;;;;;;;;5095042;28;20267;-72
2022/06/27 00:40:08;;;;;;;10.47;6.03;;;;;;;;;;5094001;28;20546;-72
2022/06/27 00:42:36;;;;;;;6.85;5.38;;;;;;;;;;5093385;28;20753;-71
2022/06/27 00:45:01;;;;;;;8.00;5.20;;;;;;;;;;5093555;28;20035;-73
2022/06/27 00:47:27;;;;;;;6.15;5.55;;;;;;;;;;5095427;28;20024;-73
2022/06/27 00:49:53;;;;;;;6.28;5.55;;;;;;;;;;5094569;28;20039;-72
2022/06/27 00:52:18;;;;;;;6.47;5.75;;;;;;;;;;5094641;28;20031;-72
2022/06/27 00:54:45;;;;;;;7.70;5.17;;;;;;;;;;5095074;28;20099;-72
2022/06/27 00:57:12;;;;;;;7.03;5.40;;;;;;;;;;5094876;28;20339;-72
2022/06/27 00:59:38;;;;;;;6.50;5.47;;;;;;;;;;5094616;28;20099;-71
2022/06/27 01:02:06;;;;;;;7.03;5.35;;;;;;;;;;5094580;28;20506;-72
2022/06/27 01:04:33;;;;;;;7.60;5.68;;;;;;;;;;5094356;28;20027;-73
2022/06/27 01:06:59;;;;;;;6.25;5.55;;;;;;;;;;5094355;28;20424;-73
2022/06/27 01:09:25;;;;;;;12.23;5.78;;;;;;;;;;5094548;28;20016;-72
2022/06/27 01:11:50;;;;;;;7.78;5.68;;;;;;;;;;5093235;28;20116;-72
2022/06/27 01:14:17;;;;;;;7.03;5.55;;;;;;;;;;5094342;28;20036;-73
2022/06/27 01:16:42;;;;;;;7.45;6.10;;;;;;;;;;5094310;28;20015;-72
2022/06/27 01:19:11;;;;;;;7.75;5.43;;;;;;;;;;5093904;28;20493;-73
2022/06/27 01:21:40;;;;;;;6.53;5.75;;;;;;;;;;5094414;28;20435;-73
2022/06/27 01:24:06;;;;;;;6.30;5.55;;;;;;;;;;5094649;28;20028;-73
2022/06/27 01:26:32;;;;;;;6.65;5.47;;;;;;;;;;5093896;28;20023;-72
2022/06/27 01:28:57;;;;;;;7.32;5.72;;;;;;;;;;5092960;28;20024;-73
2022/06/27 01:31:22;;;;;;;7.43;5.88;;;;;;;;;;5094058;28;20082;-73
2022/06/27 01:33:48;;;;;;;6.15;5.57;;;;;;;;;;5094281;28;20020;-73
2022/06/27 01:38:57;;;;;;;;;;;;;;;;;;5094328;28;20027;-72
2022/06/27 01:41:22;;;;;;;6.60;5.90;;;;;;;;;;5094059;28;19912;-74
2022/06/27 01:43:49;;;;;;;12.30;6.03;;;;;;;;;;5092724;28;20031;-73
2022/06/27 01:46:15;;;;;;;6.90;5.70;;;;;;;;;;5094377;28;20027;-73
2022/06/27 01:48:40;;;;;;;6.82;6.13;;;;;;;;;;5093940;28;20490;-72
2022/06/27 01:51:09;;;;;;;7.70;5.90;;;;;;;;;;5093791;28;20039;-72
2022/06/27 01:53:36;;;;;;;6.85;5.93;;;;;;;;;;5093698;28;20257;-72
2022/06/27 01:56:01;;;;;;;7.00;6.30;;;;;;;;;;5093493;28;20035;-73
2022/06/27 01:58:27;;;;;;;8.32;5.95;;;;;;;;;;5093564;28;20024;-73
2022/06/27 02:00:52;;;;;;;7.85;6.32;;;;;;;;;;5092320;28;20027;-73
2022/06/27 02:03:18;;;;;;;7.40;6.60;;;;;;;;;;5093708;28;20024;-73
2022/06/27 02:05:45;;;;;;;7.18;6.20;;;;;;;;;;5092283;28;20110;-73
2022/06/27 02:08:11;;;;;;;8.07;6.13;;;;;;;;;;5093408;28;20077;-73
2022/06/27 02:10:36;;;;;;;7.60;5.95;;;;;;;;;;5093686;28;20024;-73
2022/06/27 02:13:02;;;;;;;9.38;6.40;;;;;;;;;;5093518;28;20092;-74
2022/06/27 02:15:28;;;;;;;6.38;5.65;;;;;;;;;;5093331;28;20130;-73
2022/06/27 02:17:53;;;;;;;6.93;5.80;;;;;;;;;;5091673;28;20559;-73
2022/06/27 02:20:18;;;;;;;6.53;5.83;;;;;;;;;;5093618;28;20032;-74
2022/06/27 02:22:44;;;;;;;7.40;6.60;;;;;;;;;;5093134;28;20261;-72
2022/06/27 02:25:10;;;;;;;8.73;5.93;;;;;;;;;;5093494;28;20488;-73
2022/06/27 02:27:36;;;;;;;10.18;5.88;;;;;;;;;;5093193;28;20374;-72
2022/06/27 02:30:03;;;;;;;7.68;6.18;;;;;;;;;;5093477;28;20027;-73
2022/06/27 02:32:29;;;;;;;9.60;6.90;;;;;;;;;;5093507;28;20056;-74
2022/06/27 02:34:58;;;;;;;7.63;6.72;;;;;;;;;;5093513;28;20051;-72
2022/06/27 02:37:24;;;;;;;9.65;6.70;;;;;;;;;;5093535;28;20070;-73
2022/06/27 02:39:52;;;;;;;7.10;6.15;;;;;;;;;;5093388;28;20474;-73
2022/06/27 02:42:19;;;;;;;7.45;6.72;;;;;;;;;;5093875;28;20032;-74
2022/06/27 02:44:48;;;;;;;7.90;6.55;;;;;;;;;;5097782;28;20020;-73
2022/06/27 02:47:14;;;;;;;7.22;6.53;;;;;;;;;;5096994;28;20046;-74
2022/06/27 02:49:39;;;;;;;7.45;6.63;;;;;;;;;;5096786;28;20439;-73
2022/06/27 02:52:19;;;;;;;8.20;6.63;;;;;;;;;;5096578;28;20423;-74
2022/06/27 02:54:49;;;;;;;8.02;6.65;;;;;;;;;;5096544;28;20020;-72
2022/06/27 02:57:43;;;;;;;7.78;6.65;;;;;;;;;;5096420;28;20028;-72
2022/06/27 03:00:09;;;;;;;8.70;6.43;;;;;;;;;;5093151;28;20103;-73
2022/06/27 03:02:40;;;;;;;7.60;6.80;;;;;;;;;;5094814;28;20064;-73
2022/06/27 03:05:06;;;;;;;9.40;6.50;;;;;;;;;;5095745;28;20070;-74
2022/06/27 03:07:42;;;;;;;7.60;6.80;;;;;;;;;;5095714;28;20060;-73
2022/06/27 03:10:09;;;;;;;7.65;6.88;;;;;;;;;;5095636;28;20026;-72
2022/06/27 03:12:35;;;;;;;7.70;6.60;;;;;;;;;;5095675;28;20070;-73
2022/06/27 03:15:00;;;;;;;10.27;6.50;;;;;;;;;;5095579;28;20437;-73
2022/06/27 03:17:25;;;;;;;7.43;6.72;;;;;;;;;;5095531;28;20024;-73
2022/06/27 03:19:50;;;;;;;8.65;6.78;;;;;;;;;;5095760;28;20107;-73
2022/06/27 03:22:17;;;;;;;10.00;6.70;;;;;;;;;;5095452;28;20020;-73
2022/06/27 03:24:42;;;;;;;7.68;6.60;;;;;;;;;;5095299;28;20257;-72
2022/06/27 03:27:09;;;;;;;9.30;7.05;;;;;;;;;;5094337;28;20026;-73
2022/06/27 03:29:35;;;;;;;7.70;6.78;;;;;;;;;;5097962;28;20389;-73
2022/06/27 03:32:00;;;;;;;9.25;6.70;;;;;;;;;;5100796;28;20031;-72
2022/06/27 03:34:25;;;;;;;9.48;6.78;;;;;;;;;;5100032;28;20024;-72
2022/06/27 03:36:51;;;;;;;9.30;6.90;;;;;;;;;;5100889;28;20031;-73
2022/06/27 03:39:16;;;;;;;8.37;7.07;;;;;;;;;;5100357;28;20272;-73
2022/06/27 03:41:41;;;;;;;9.25;6.85;;;;;;;;;;5100606;28;20267;-73
2022/06/27 03:44:11;;;;;;;9.60;6.73;;;;;;;;;;5101413;28;20542;-72
2022/06/27 03:46:37;;;;;;;9.27;6.53;;;;;;;;;;5100949;28;20752;-73
2022/06/27 03:51:47;;;;;;;10.48;6.32;;;;;;;;;;5101940;28;20027;-72
2022/06/27 03:54:12;;;;;;;8.10;6.38;;;;;;;;;;5100011;28;20473;-71
2022/06/27 03:56:38;;;;;;;7.05;6.22;;;;;;;;;;5096235;28;20024;-73
2022/06/27 03:59:03;;;;;;;9.15;6.80;;;;;;;;;;5095942;28;20020;-73
2022/06/27 04:01:28;;;;;;;9.13;6.38;;;;;;;;;;5096207;28;20019;-73
2022/06/27 04:03:53;;;;;;;11.73;6.30;;;;;;;;;;5095230;28;20024;-73
2022/06/27 04:06:19;;;;;;;6.97;6.17;;;;;;;;;;5095762;28;20267;-72
2022/06/27 04:08:44;;;;;;;8.30;6.30;;;;;;;;;;5095990;28;20257;-73
2022/06/27 04:11:09;;;;;;;7.93;6.10;;;;;;;;;;5096001;28;20339;-72
2022/06/27 04:13:34;;;;;;;7.25;5.72;;;;;;;;;;5095387;28;20272;-73
2022/06/27 04:16:00;;;;;;;9.10;6.43;;;;;;;;;;5094053;28;20095;-72
2022/06/27 04:18:25;;;;;;;6.40;5.77;;;;;;;;;;5095297;28;20389;-71
2022/06/27 04:20:50;;;;;;;8.48;6.35;;;;;;;;;;5095854;28;20343;-73
2022/06/27 04:23:15;;;;;;;8.40;6.63;;;;;;;;;;5095935;28;20028;-72
2022/06/27 04:25:42;;;;;;;12.10;6.63;;;;;;;;;;5095818;28;20043;-73
2022/06/27 04:28:07;;;;;;;9.77;6.13;;;;;;;;;;5094552;28;20256;-73
2022/06/27 04:30:33;;;;;;;12.05;6.07;;;;;;;;;;5095491;28;20107;-72
2022/06/27 04:32:59;;;;;;;8.32;6.18;;;;;;;;;;5095681;28;20028;-73
2022/06/27 04:35:25;;;;;;;7.43;6.05;;;;;;;;;;5095408;28;20033;-73
2022/06/27 04:37:50;;;;;;;6.60;5.78;;;;;;;;;;5093821;28;20416;-73
2022/06/27 04:40:19;;;;;;;8.98;5.68;;;;;;;;;;5095370;28;20039;-72
2022/06/27 04:42:44;;;;;;;7.47;6.18;;;;;;;;;;5095167;28;20531;-73
2022/06/27 04:45:12;;;;;;;7.00;6.22;;;;;;;;;;5093696;28;20031;-73
2022/06/27 04:47:42;;;;;;;6.57;5.57;;;;;;;;;;5094880;28;20047;-73
2022/06/27 04:50:10;;;;;;;7.57;5.90;;;;;;;;;;5095315;28;20473;-72
2022/06/27 04:52:39;;;;;;;7.07;6.00;;;;;;;;;;5095447;28;20140;-72
2022/06/27 04:55:07;;;;;;;11.75;5.90;;;;;;;;;;5095527;28;20024;-74
2022/06/27 04:57:33;;;;;;;8.98;5.78;;;;;;;;;;5093789;28;20024;-73
2022/06/27 04:59:58;;;;;;;5.88;4.90;;;;;;;;;;5094884;28;20024;-73
2022/06/27 05:02:24;;;;;;;6.70;5.50;;;;;;;;;;5095032;28;20156;-72
2022/06/27 05:04:49;;;;;;;9.48;5.68;;;;;;;;;;5093842;28;20115;-74
2022/06/27 05:07:14;;;;;;;6.63;5.20;;;;;;;;;;5093380;28;20115;-73
2022/06/27 05:09:39;;;;;;;5.53;4.87;;;;;;;;;;5094743;28;20256;-73
2022/06/27 05:12:05;;;;;;;7.00;5.07;;;;;;;;;;5094820;28;20265;-73
2022/06/27 05:14:30;;;;;;;9.10;5.10;;;;;;;;;;5094806;28;20256;-72
2022/06/27 05:16:55;;;;;;;6.10;5.05;;;;;;;;;;5093319;28;20024;-73
2022/06/27 05:19:21;;;;;;;11.98;4.85;;;;;;;;;;5094067;28;20032;-72
2022/06/27 05:21:46;;;;;;;5.35;4.78;;;;;;;;;;5094344;28;20064;-72
2022/06/27 05:24:11;;;;;;;6.72;4.90;;;;;;;;;;5094458;28;20031;-71
2022/06/27 05:26:37;;;;;;;5.78;5.03;;;;;;;;;;5094775;28;20060;-72
2022/06/27 05:29:02;;;;;;;5.28;4.72;;;;;;;;;;5094563;28;20036;-72
2022/06/27 05:31:28;;;;;;;5.85;5.20;;;;;;;;;;5094379;28;20016;-72
2022/06/27 05:33:53;;;;;;;6.03;4.85;;;;;;;;;;5094788;28;20020;-73
2022/06/27 05:36:19;;;;;;;5.57;4.30;;;;;;;;;;5094413;28;20485;-72
2022/06/27 05:38:44;;;;;;;6.03;4.50;;;;;;;;;;5093522;28;20799;-72
2022/06/27 05:41:10;;;;;;;10.93;4.63;;;;;;;;;;5093443;28;20036;-71
2022/06/27 05:43:35;;;;;;;5.35;4.32;;;;;;;;;;5093514;28;20020;-73
2022/06/27 05:46:03;;;;;;;5.13;4.18;;;;;;;;;;5093119;28;20438;-73
2022/06/27 05:48:31;;;;;;;6.93;4.13;;;;;;;;;;5094541;28;20016;-73
2022/06/27 05:50:59;;;;;;;7.28;3.85;;;;;;;;;;5094729;28;20161;-73
2022/06/27 05:53:24;;;;;;;5.78;3.75;;;;;;;;;;5092823;28;20020;-73
2022/06/27 05:55:50;;;;;;;6.35;4.00;;;;;;;;;;5093875;28;20035;-73
2022/06/27 05:58:18;;;;;;;4.80;3.90;;;;;;;;;;5094040;28;20024;-72
2022/06/27 06:00:43;;;;;;;6.05;3.72;;;;;;;;;;5094930;28;20035;-72
2022/06/27 06:03:08;;;;;;;4.90;3.88;;;;;;;;;;5094172;28;20467;-72
2022/06/27 06:05:34;;;;;;;5.97;3.73;;;;;;;;;;5094222;28;20111;-73
2022/06/27 06:08:02;;;;;;;4.18;3.70;;;;;;;;;;5093275;28;20027;-73
2022/06/27 06:10:28;;;;;;;5.15;3.55;;;;;;;;;;5094418;28;20028;-73
2022/06/27 06:12:53;;;;;;;5.53;3.40;;;;;;;;;;5094424;28;20168;-73
2022/06/27 06:15:18;;;;;;;3.80;3.40;;;;;;;;;;5094162;28;20016;-73
2022/06/27 06:17:44;;;;;;;5.47;3.38;;;;;;;;;;5097149;28;20024;-78
2022/06/27 06:20:10;;;;;;;4.75;3.10;;;;;;;;;;5107612;28;20008;-78
2022/06/27 06:22:35;;;;;;;4.55;3.00;;;;;;;;;;5110191;28;20105;-79
2022/06/27 06:25:02;;;;;;;3.75;2.88;;;;;;;;;;5109163;28;20067;-78
2022/06/27 06:27:29;;;;;;;3.03;2.72;;;;;;;;;;5105131;28;20039;-79
2022/06/27 06:29:54;;;;;;;6.05;3.20;;;;;;;;;;5107943;28;20020;-79
2022/06/27 06:32:20;;;;;;;3.17;2.60;;;;;;;;;;5112178;28;20027;-79
2022/06/27 06:34:46;;;;;;;6.15;2.45;;;;;;;;;;5108312;28;20028;-78
2022/06/27 06:37:12;;;;;;;6.03;2.72;;;;;;;;;;5109510;28;20059;-78
2022/06/27 06:39:38;;;;;;;6.40;2.47;;;;;;;;;;5109334;28;20020;-79
2022/06/27 06:42:04;;;;;;;4.95;2.50;;;;;;;;;;5108862;28;20035;-77
2022/06/27 06:44:30;;;;;;;2.83;2.40;;;;;;;;;;5110217;28;20028;-79
2022/06/27 06:46:56;;;;;;;3.45;2.40;;;;;;;;;;5112842;28;20408;-78
2022/06/27 06:49:23;;;;;;;2.88;2.58;;;;;;;;;;5109754;28;20035;-79
2022/06/27 06:51:49;;;;;;;7.43;2.67;;;;;;;;;;5111521;28;20020;-79
2022/06/27 06:54:17;;;;;;;4.45;2.50;;;;;;;;;;5111947;28;20099;-79
2022/06/27 06:56:45;;;;;;;4.13;2.63;;;;;;;;;;5109390;28;20087;-78
2022/06/27 06:59:10;;;;;;;4.45;2.67;;;;;;;;;;5112018;28;20042;-78
2022/06/27 07:01:37;;;;;;;3.33;2.70;;;;;;;;;;5110766;28;20024;-78
2022/06/27 07:04:02;;;;;;;4.15;2.50;;;;;;;;;;5102960;28;20020;-78
2022/06/27 07:06:32;;;;;;;3.55;2.67;;;;;;;;;;5107864;28;20024;-79
2022/06/27 07:08:58;;;;;;;3.00;2.70;;;;;;;;;;5111524;28;20020;-80
2022/06/27 07:11:27;;;;;;;6.07;2.88;;;;;;;;;;5110199;28;20028;-77
2022/06/27 07:13:53;;;;;;;3.67;2.65;;;;;;;;;;5106447;28;20024;-79
2022/06/27 07:16:19;;;;;;;2.97;2.42;;;;;;;;;;5111026;28;20049;-79
2022/06/27 07:18:46;;;;;;;3.33;2.42;;;;;;;;;;5110291;28;20024;-78
2022/06/27 07:21:14;;;;;;;4.05;2.50;;;;;;;;;;5110277;28;20054;-79
2022/06/27 07:23:39;;;;;;;3.20;2.60;;;;;;;;;;5108763;28;20026;-77
2022/06/27 07:26:05;;;;;;;3.92;2.40;;;;;;;;;;5102472;28;20088;-78
2022/06/27 07:28:31;;;;;;;3.03;2.55;;;;;;;;;;5101771;28;20031;-78
2022/06/27 07:30:58;;;;;;;3.08;2.50;;;;;;;;;;5101703;28;20016;-78
2022/06/27 07:33:24;;;;;;;5.78;2.45;;;;;;;;;;5107781;28;20031;-80
2022/06/27 07:35:50;;;;;;;2.45;2.03;;;;;;;;;;5100143;28;20057;-78
2022/06/27 07:38:15;;;;;;;3.92;2.30;;;;;;;;;;5108556;28;20016;-79
2022/06/27 07:40:42;;;;;;;3.30;2.27;;;;;;;;;;5110642;28;20032;-78
2022/06/27 07:43:09;;;;;;;6.78;2.47;;;;;;;;;;5108967;28;20111;-78
2022/06/27 07:45:35;;;;;;;5.60;2.20;;;;;;;;;;5107222;28;20050;-79
2022/06/27 07:48:00;;;;;;;2.45;1.95;;;;;;;;;;5106677;28;20031;-79
2022/06/27 07:50:37;;;;;;;4.00;2.15;;;;;;;;;;5107746;28;20092;-79
2022/06/27 07:53:12;;;;;;;2.92;1.90;;;;;;;;;;5104805;28;20032;-79
2022/06/27 07:55:42;;;;;;;2.50;2.00;;;;;;;;;;5110830;28;20050;-79
2022/06/27 07:58:16;;;;;;;4.07;2.00;;;;;;;;;;5110463;28;20106;-79
2022/06/27 08:00:43;;;;;;;4.28;2.10;;;;;;;;;;5109477;28;20551;-78
2022/06/27 08:05:53;;;;;;;4.28;2.00;;;;;;;;;;5104620;28;20058;-79
2022/06/27 08:08:21;;;;;;;5.35;1.70;;;;;;;;;;5102655;28;20094;-78
2022/06/27 08:10:46;;;;;;;4.90;1.80;;;;;;;;;;5106044;28;20032;-79
2022/06/27 08:13:12;;;;;;;4.43;1.83;;;;;;;;;;5110220;28;20142;-79
2022/06/27 08:15:37;;;;;;;3.20;1.90;;;;;;;;;;5109473;28;20065;-79
2022/06/27 08:18:04;;;;;;;4.13;1.75;;;;;;;;;;5109196;28;20095;-79
2022/06/27 08:20:29;;;;;;;2.30;1.60;;;;;;;;;;5109020;28;20028;-78
2022/06/27 08:22:55;;;;;;;2.13;1.50;;;;;;;;;;5109657;28;20020;-79
2022/06/27 08:25:21;;;;;;;5.63;1.70;;;;;;;;;;5109689;28;20087;-79
2022/06/27 08:27:48;;;;;;;2.08;1.55;;;;;;;;;;5106839;28;20049;-77
2022/06/27 08:30:15;;;;;;;4.47;1.48;;;;;;;;;;5104194;28;20163;-79
2022/06/27 08:32:41;;;;;;;4.50;1.33;;;;;;;;;;5102178;28;20023;-78
2022/06/27 08:35:08;;;;;;;2.23;1.53;;;;;;;;;;5103345;28;20114;-78
2022/06/27 08:37:33;;;;;;;5.57;1.65;;;;;;;;;;5103197;28;20259;-78
2022/06/27 08:39:59;;;;;;;3.10;1.40;;;;;;;;;;5100503;28;20019;-78
2022/06/27 08:42:24;;;;;;;3.08;1.55;;;;;;;;;;5101368;28;20024;-78
2022/06/27 08:44:50;;;;;;;2.13;1.55;;;;;;;;;;5101194;28;20032;-77
2022/06/27 08:47:16;;;;;;;6.10;1.53;;;;;;;;;;5101144;28;20552;-78
2022/06/27 08:49:43;;;;;;;2.58;1.60;;;;;;;;;;5100200;28;20256;-78
2022/06/27 08:52:09;;;;;;;4.95;1.45;;;;;;;;;;5100348;28;20465;-77
2022/06/27 08:54:34;;;;;;;2.80;1.67;;;;;;;;;;5100345;28;20030;-78
2022/06/27 08:57:01;;;;;;;3.43;1.50;;;;;;;;;;5099855;28;20123;-79
2022/06/27 08:59:28;;;;;;;5.55;1.75;;;;;;;;;;5100575;28;20056;-78
2022/06/27 09:01:53;;;;;;;3.35;1.80;;;;;;;;;;5101804;28;20485;-78
2022/06/27 09:04:19;;;;;;;3.88;1.65;;;;;;;;;;5097691;28;20027;-78
2022/06/27 09:06:44;;;;;;;5.15;1.90;;;;;;;;;;5099101;28;20497;-79
2022/06/27 09:09:12;;;;;;;5.45;1.90;;;;;;;;;;5100356;28;20024;-79
2022/06/27 09:11:42;;;;;;;4.22;1.70;;;;;;;;;;5098333;28;20046;-78
2022/06/27 09:14:34;;;;;;;7.07;1.50;;;;;;;;;;5095395;28;20028;-78
2022/06/27 09:17:04;;;;;;;2.35;1.50;;;;;;;;;;5098377;28;20106;-77
2022/06/27 09:19:53;;;;;;;5.35;1.80;;;;;;;;;;5098922;28;20038;-76
2022/06/27 09:22:20;;;;;;;4.22;1.65;;;;;;;;;;5101422;28;20078;-79
2022/06/27 09:25:05;;;;;;;3.80;1.70;;;;;;;;;;5097340;28;20031;-78
2022/06/27 09:27:50;;;;;;;1.90;1.70;;;;;;;;;;5099978;28;20077;-78
2022/06/27 09:30:18;;;;;;;4.88;1.80;;;;;;;;;;5104281;28;20020;-79
2022/06/27 09:32:43;;;;;;;4.47;1.83;;;;;;;;;;5107109;28;20031;-78
2022/06/27 09:35:25;;;;;;;7.25;1.88;;;;;;;;;;5104404;28;20032;-79
2022/06/27 09:37:54;;;;;;;4.35;1.70;;;;;;;;;;5102510;28;20016;-78
2022/06/27 09:40:23;;;;;;;2.83;1.75;;;;;;;;;;5102004;28;20030;-79
2022/06/27 09:42:52;;;;;;;5.00;1.80;;;;;;;;;;5107110;28;20056;-79
2022/06/27 09:45:25;;;;;;;6.30;2.05;;;;;;;;;;5109018;28;20028;-79
2022/06/27 09:48:04;;;;;;;5.25;1.80;;;;;;;;;;5109102;28;20032;-79
2022/06/27 09:50:33;;;;;;;4.38;1.75;;;;;;;;;;5101726;28;20028;-78
2022/06/27 09:52:59;;;;;;;3.17;1.80;;;;;;;;;;5104546;28;20020;-78
2022/06/27 09:55:25;;;;;;;3.30;1.63;;;;;;;;;;5105026;28;20034;-78
2022/06/27 09:57:52;;;;;;;2.53;2.00;;;;;;;;;;5102951;28;20119;-78
2022/06/27 10:00:20;;;;;;;3.22;1.73;;;;;;;;;;5104637;28;20047;-78
2022/06/27 10:02:46;;;;;;;6.20;2.30;;;;;;;;;;5105060;28;20036;-78
2022/06/27 10:05:16;;;;;;;6.00;2.10;;;;;;;;;;5104535;28;20020;-78
2022/06/27 10:07:44;;;;;;;2.03;1.67;;;;;;;;;;5101696;28;20397;-78
2022/06/27 10:10:09;;;;;;;3.88;1.77;;;;;;;;;;5102034;28;20085;-77
2022/06/27 10:12:36;;;;;;;3.40;1.65;;;;;;;;;;5101505;28;20052;-78
2022/06/27 10:15:10;;;;;;;2.08;1.50;;;;;;;;;;5103772;28;20366;-77
2022/06/27 10:17:58;;;;;;;2.22;1.90;;;;;;;;;;5101419;28;20055;-78
2022/06/27 10:20:26;;;;;;;3.05;1.65;;;;;;;;;;5102948;28;20099;-78
2022/06/27 10:23:04;;;;;;;7.03;1.88;;;;;;;;;;5106498;28;20049;-79
2022/06/27 10:25:29;;;;;;;7.55;1.80;;;;;;;;;;5112045;28;20024;-79
2022/06/27 10:28:10;;;;;;;4.67;1.63;;;;;;;;;;5111568;28;20035;-79
2022/06/27 10:30:52;;;;;;;2.25;1.70;;;;;;;;;;5108059;28;20027;-78
2022/06/27 10:33:17;;;;;;;3.93;1.70;;;;;;;;;;5101617;28;20035;-78
2022/06/27 10:35:59;;;;;;;3.47;1.60;;;;;;;;;;5101083;28;20028;-77
2022/06/27 10:38:39;;;;;;;3.72;1.50;;;;;;;;;;5101313;28;20425;-79
2022/06/27 10:41:10;;;;;;;1.92;1.50;;;;;;;;;;5102771;28;20107;-79
2022/06/27 10:43:35;;;;;;;2.40;1.60;;;;;;;;;;5100497;28;20111;-78
2022/06/27 10:46:00;;;;;;;2.27;1.37;;;;;;;;;;5102583;28;20481;-78
2022/06/27 10:48:34;;;;;;;4.63;1.50;;;;;;;;;;5100455;28;20065;-77
2022/06/27 10:51:26;;;;;;;1.35;1.20;;;;;;;;;;5103594;28;20610;-78
2022/06/27 10:54:12;;;;;;;2.75;1.60;;;;;;;;;;5103591;28;20035;-77
2022/06/27 10:56:44;;;;;;;2.20;1.70;;;;;;;;;;5100707;28;20100;-78
2022/06/27 10:59:15;;;;;;;2.33;1.67;;;;;;;;;;5096851;28;20068;-78
2022/06/27 11:02:01;;;;;;;2.90;1.70;;;;;;;;;;5102171;28;20039;-78
2022/06/27 11:04:31;;;;;;;2.42;1.70;;;;;;;;;;5083408;28;20075;-77
2022/06/27 11:07:02;;;;;;;2.47;1.55;;;;;;;;;;5100475;28;20024;-78
2022/06/27 11:09:45;;;;;;;2.22;1.58;;;;;;;;;;5106265;28;20241;-79
2022/06/27 11:12:13;;;;;;;5.07;1.75;;;;;;;;;;5108047;28;20052;-79
2022/06/27 11:14:48;;;;;;;3.75;1.77;;;;;;;;;;5099274;28;20031;-79
2022/06/27 11:17:27;;;;;;;1.67;1.50;;;;;;;;;;5100467;28;20024;-79
2022/06/27 11:20:13;;;;;;;3.78;1.60;;;;;;;;;;5100056;28;20023;-78
2022/06/27 11:22:39;;;;;;;3.28;1.40;;;;;;;;;;5099144;28;20378;-78
2022/06/27 11:25:05;;;;;;;2.72;1.38;;;;;;;;;;5098032;28;20024;-77
2022/06/27 11:33:34;;;;;;;1.92;1.40;;;;;;;;;;5098584;28;20031;-76
2022/06/27 11:36:00;;;;;;;5.35;1.80;;;;;;;;;;5098757;28;20066;-78
2022/06/27 11:38:43;;;;;;;2.88;1.73;;;;;;;;;;5103516;28;20046;-78
2022/06/27 11:41:10;;;;;;;1.65;1.55;;;;;;;;;;5103169;28;20032;-79
2022/06/27 11:43:56;;;;;;;5.60;1.50;;;;;;;;;;5103954;28;20063;-78
2022/06/27 11:46:27;;;;;;;7.88;1.60;;;;;;;;;;5105473;28;20028;-78
2022/06/27 11:48:58;;;;;;;3.83;1.70;;;;;;;;;;5097984;28;20103;-77
2022/06/27 11:51:26;;;;;;;3.58;1.58;;;;;;;;;;5109925;28;20050;-79
2022/06/27 11:53:53;;;;;;;6.13;1.50;;;;;;;;;;5109144;28;20048;-79
2022/06/27 11:56:24;;;;;;;6.25;1.77;;;;;;;;;;5107236;28;20035;-76
2022/06/27 11:58:52;;;;;;;4.93;1.92;;;;;;;;;;5098376;28;20016;-78
2022/06/27 12:01:19;;;;;;;5.18;2.03;;;;;;;;;;5100889;28;20030;-78
2022/06/27 12:04:11;;;;;;;5.72;1.70;;;;;;;;;;5098971;28;20492;-78
2022/06/27 12:06:55;;;;;;;3.17;2.03;;;;;;;;;;5102446;28;20020;-78
2022/06/27 12:09:23;;;;;;;2.60;1.70;;;;;;;;;;5102505;28;20024;-78
2022/06/27 12:12:00;;;;;;;1.95;1.75;;;;;;;;;;5100264;28;20028;-77
2022/06/27 12:14:26;;;;;;;3.53;1.90;;;;;;;;;;5099010;28;20020;-78
2022/06/27 12:16:54;;;;;;;2.15;1.60;;;;;;;;;;5100778;28;20039;-78
2022/06/27 12:19:20;;;;;;;2.92;1.73;;;;;;;;;;5100575;28;20047;-78
2022/06/27 12:21:46;;;;;;;2.42;1.80;;;;;;;;;;5100031;28;20039;-78
2022/06/27 12:24:13;;;;;;;3.78;1.60;;;;;;;;;;5096512;28;20028;-78
2022/06/27 12:26:38;;;;;;;6.80;1.92;;;;;;;;;;5100633;28;20035;-77
2022/06/27 12:29:04;;;;;;;3.95;1.30;;;;;;;;;;5099742;28;20020;-78
2022/06/27 12:31:31;;;;;;;6.68;1.80;;;;;;;;;;5098293;28;20023;-78
2022/06/27 12:33:56;;;;;;;3.05;1.60;;;;;;;;;;5100287;28;20362;-77
2022/06/27 12:36:21;;;;;;;2.35;1.70;;;;;;;;;;5099982;28;20046;-78
2022/06/27 12:38:47;;;;;;;5.65;1.77;;;;;;;;;;5102046;28;20076;-78
2022/06/27 12:41:12;;;;;;;3.35;1.80;;;;;;;;;;5100801;28;20453;-78
2022/06/27 12:43:42;;;;;;;1.80;1.65;;;;;;;;;;5101245;28;20062;-78
2022/06/27 12:46:07;;;;;;;3.72;1.45;;;;;;;;;;5100051;28;20031;-79
2022/06/27 12:48:33;;;;;;;3.38;1.52;;;;;;;;;;5099652;28;20016;-78
2022/06/27 12:50:59;;;;;;;3.78;1.67;;;;;;;;;;5096666;28;20024;-77
2022/06/27 12:53:24;;;;;;;3.38;1.80;;;;;;;;;;5095592;28;20023;-78
2022/06/27 12:55:50;;;;;;;3.47;1.58;;;;;;;;;;5098383;28;20027;-77
2022/06/27 12:58:17;;;;;;;4.45;1.73;;;;;;;;;;5098415;28;20023;-78
2022/06/27 13:00:42;;;;;;;2.05;1.70;;;;;;;;;;5099020;28;20028;-77
2022/06/27 13:03:07;;;;;;;6.23;2.07;;;;;;;;;;5107416;28;20088;-78
2022/06/27 13:05:32;;;;;;;5.13;2.00;;;;;;;;;;5100851;28;20261;-78
2022/06/27 13:07:58;;;;;;;4.18;2.00;;;;;;;;;;5100705;28;20032;-78
2022/06/27 13:10:23;;;;;;;3.15;1.77;;;;;;;;;;5102127;28;20031;-78
2022/06/27 13:12:48;;;;;;;5.65;1.90;;;;;;;;;;5100691;28;20454;-78
2022/06/27 13:15:16;;;;;;;5.93;2.10;;;;;;;;;;5102139;28;20366;-78
2022/06/27 13:17:41;;;;;;;8.77;2.15;;;;;;;;;;5100624;28;20265;-78
2022/06/27 13:20:09;;;;;;;4.75;1.90;;;;;;;;;;5100182;28;20021;-78
2022/06/27 13:22:35;;;;;;;4.30;2.20;;;;;;;;;;5099844;28;20027;-78
2022/06/27 13:25:00;;;;;;;4.75;2.10;;;;;;;;;;5100971;28;20476;-78
2022/06/27 13:27:25;;;;;;;4.07;1.80;;;;;;;;;;5096228;28;20032;-77
2022/06/27 13:29:51;;;;;;;4.40;1.80;;;;;;;;;;5101209;28;20477;-78
2022/06/27 13:32:17;;;;;;;4.25;2.53;;;;;;;;;;5102996;28;20253;-79
2022/06/27 13:34:42;;;;;;;8.07;1.90;;;;;;;;;;5100818;28;20519;-79
2022/06/27 13:37:07;;;;;;;4.60;2.10;;;;;;;;;;5101527;28;20023;-79
2022/06/27 13:39:32;;;;;;;3.30;2.00;;;;;;;;;;5102010;28;20283;-77
2022/06/27 13:42:02;;;;;;;3.17;2.10;;;;;;;;;;5098082;28;20035;-78
2022/06/27 13:44:27;;;;;;;4.63;2.10;;;;;;;;;;5103869;28;20031;-79
2022/06/27 13:46:53;;;;;;;9.47;1.87;;;;;;;;;;5108644;28;20028;-78
2022/06/27 13:49:18;;;;;;;4.00;2.20;;;;;;;;;;5109354;28;20339;-78
2022/06/27 13:51:43;;;;;;;2.97;1.83;;;;;;;;;;5100990;28;20051;-78
2022/06/27 13:54:08;;;;;;;5.20;1.83;;;;;;;;;;5097346;28;20485;-77
2022/06/27 13:56:33;;;;;;;4.07;2.10;;;;;;;;;;5097521;28;20253;-77
2022/06/27 13:58:59;;;;;;;2.70;2.10;;;;;;;;;;5097766;28;20024;-78
2022/06/27 14:01:24;;;;;;;4.60;2.10;;;;;;;;;;5097396;28;20292;-78
2022/06/27 14:03:49;;;;;;;3.40;2.07;;;;;;;;;;5096909;28;20260;-78
2022/06/27 14:08:58;;;;;;;9.02;2.20;;;;;;;;;;5098101;28;20035;-77
2022/06/27 14:11:23;;;;;;;2.57;1.97;;;;;;;;;;5097787;28;20044;-77
2022/06/27 14:13:49;;;;;;;8.10;2.30;;;;;;;;;;5099141;28;20020;-77
2022/06/27 14:16:15;;;;;;;3.95;2.00;;;;;;;;;;5097748;28;20031;-77
2022/06/27 14:18:40;;;;;;;3.17;2.25;;;;;;;;;;5099287;28;20621;-78
2022/06/27 14:21:05;;;;;;;6.30;2.40;;;;;;;;;;5099465;28;20119;-78
2022/06/27 14:23:31;;;;;;;5.17;2.30;;;;;;;;;;5098768;28;20032;-77
2022/06/27 14:25:56;;;;;;;4.00;2.25;;;;;;;;;;5098666;28;20042;-78
2022/06/27 14:28:21;;;;;;;5.77;2.30;;;;;;;;;;5097845;28;20473;-78
2022/06/27 14:30:46;;;;;;;3.83;2.10;;;;;;;;;;5097919;28;20453;-78
2022/06/27 14:33:12;;;;;;;6.57;2.30;;;;;;;;;;5099099;28;20400;-79
2022/06/27 14:35:37;;;;;;;5.03;2.07;;;;;;;;;;5100637;28;20355;-77
2022/06/27 14:38:02;;;;;;;3.13;2.13;;;;;;;;;;5101216;28;20031;-78
2022/06/27 14:40:27;;;;;;;6.72;2.20;;;;;;;;;;5099608;28;20039;-78
2022/06/27 14:42:53;;;;;;;2.30;2.10;;;;;;;;;;5099811;28;20036;-77
2022/06/27 14:45:18;;;;;;;3.57;2.33;;;;;;;;;;5100303;28;20111;-77
2022/06/27 14:47:43;;;;;;;9.60;2.50;;;;;;;;;;5100910;28;20058;-77
2022/06/27 14:50:08;;;;;;;6.43;2.30;;;;;;;;;;5102349;28;20264;-78
2022/06/27 14:52:34;;;;;;;5.00;2.33;;;;;;;;;;5100855;28;20028;-78
2022/06/27 14:54:59;;;;;;;6.70;2.17;;;;;;;;;;5101001;28;20027;-78
2022/06/27 14:57:24;;;;;;;2.77;2.10;;;;;;;;;;5099226;28;20028;-77
2022/06/27 14:59:49;;;;;;;3.40;2.47;;;;;;;;;;5097093;28;20020;-77
2022/06/27 15:02:14;;;;;;;7.17;2.17;;;;;;;;;;5098996;28;20610;-77